createdAt,value
2019-01-22T00:00:22.883Z,47.67
2019-01-22T00:02:49.387Z,44.47
2019-01-22T00:05:15.587Z,50.17
2019-01-22T00:07:41.778Z,44.07
2019-01-22T00:10:09.283Z,39.87
2019-01-22T00:12:35.471Z,42.73
2019-01-22T00:15:01.984Z,39.23
2019-01-22T00:17:28.174Z,42.10
2019-01-22T00:19:54.577Z,38.40
2019-01-22T00:22:20.775Z,40.67
2019-01-22T00:24:46.971Z,40.97
2019-01-22T00:27:13.264Z,39.93
2019-01-22T00:29:39.468Z,37.70
2019-01-22T00:32:05.663Z,46.73
2019-01-22T00:34:31.867Z,40.03
2019-01-22T00:36:58.478Z,41.03
2019-01-22T00:39:24.677Z,36.80
2019-01-22T00:41:51.132Z,40.90
2019-01-22T00:44:17.333Z,39.77
2019-01-22T00:46:43.528Z,39.00
2019-01-22T00:49:09.732Z,37.73
2019-01-22T00:51:35.959Z,38.97
2019-01-22T00:54:03.258Z,38.97
2019-01-22T00:56:29.451Z,42.07
2019-01-22T00:58:55.665Z,40.87
2019-01-22T01:01:22.185Z,35.47
2019-01-22T01:03:48.387Z,39.73
2019-01-22T01:06:14.580Z,34.90
2019-01-22T01:08:40.772Z,35.33
2019-01-22T01:11:07.277Z,40.83
2019-01-22T01:13:33.469Z,36.90
2019-01-22T01:15:59.674Z,39.97
2019-01-22T01:18:25.864Z,43.73
2019-01-22T01:20:52.059Z,37.53
2019-01-22T01:23:18.243Z,45.30
2019-01-22T01:25:44.437Z,38.37
2019-01-22T01:28:10.640Z,42.23
2019-01-22T01:30:36.843Z,37.20
2019-01-22T01:33:03.037Z,45.37
2019-01-22T01:35:29.244Z,45.93
2019-01-22T01:37:55.432Z,42.53
2019-01-22T01:40:21.646Z,40.23
2019-01-22T01:42:47.836Z,44.00
2019-01-22T01:45:15.137Z,48.97
2019-01-22T01:47:41.626Z,47.70
2019-01-22T01:50:13.994Z,51.83
2019-01-22T01:52:40.385Z,45.87
2019-01-22T01:55:09.691Z,46.53
2019-01-22T01:57:36.389Z,45.27
2019-01-22T02:00:07.706Z,44.43
2019-01-22T02:02:34.207Z,45.13
2019-01-22T02:05:00.417Z,46.10
2019-01-22T02:07:26.605Z,44.90
2019-01-22T02:09:52.805Z,49.33
2019-01-22T02:12:22.390Z,47.87
2019-01-22T02:14:53.298Z,43.67
2019-01-22T02:17:37.626Z,42.20
2019-01-22T02:20:15.007Z,45.27
2019-01-22T02:23:12.913Z,45.03
2019-01-22T02:25:59.036Z,41.17
2019-01-22T02:28:39.524Z,39.80
2019-01-22T02:31:28.282Z,39.17
2019-01-22T02:34:21.400Z,37.33
2019-01-22T02:37:23.670Z,41.70
2019-01-22T02:39:55.583Z,40.53
2019-01-22T02:42:38.742Z,41.20
2019-01-22T02:45:31.983Z,38.33
2019-01-22T02:48:04.283Z,37.97
2019-01-22T02:50:57.185Z,44.30
2019-01-22T02:53:38.533Z,42.20
2019-01-22T02:56:37.389Z,42.90
2019-01-22T02:59:27.630Z,37.47
2019-01-22T03:02:18.468Z,32.90
2019-01-22T03:04:58.621Z,34.90
2019-01-22T03:07:41.847Z,34.33
2019-01-22T03:10:19.859Z,32.50
2019-01-22T03:12:57.580Z,34.93
2019-01-22T03:16:05.868Z,39.33
2019-01-22T03:18:52.385Z,30.27
2019-01-22T03:21:30.320Z,35.10
2019-01-22T03:24:20.727Z,38.57
2019-01-22T03:27:12.803Z,36.87
2019-01-22T03:30:05.382Z,35.47
2019-01-22T03:32:51.556Z,39.37
2019-01-22T03:35:54.999Z,42.63
2019-01-22T03:38:50.674Z,45.90
2019-01-22T03:41:36.947Z,36.27
2019-01-22T03:44:39.016Z,47.73
2019-01-22T03:47:44.883Z,45.67
2019-01-22T03:50:40.782Z,40.97
2019-01-22T03:53:21.890Z,41.80
2019-01-22T03:56:02.928Z,44.57
2019-01-22T03:58:29.110Z,43.30
2019-01-22T04:01:00.135Z,44.43
2019-01-22T04:03:26.326Z,45.50
2019-01-22T04:05:52.746Z,48.97
2019-01-22T04:08:18.927Z,45.37
2019-01-22T04:10:47.847Z,47.30
2019-01-22T04:13:14.042Z,43.43
2019-01-22T04:15:40.344Z,48.13
2019-01-22T04:18:06.550Z,43.60
2019-01-22T04:20:33.071Z,44.50
2019-01-22T04:22:59.460Z,41.57
2019-01-22T04:25:42.847Z,44.13
2019-01-22T04:28:28.807Z,49.27
2019-01-22T04:31:03.533Z,44.80
2019-01-22T04:34:19.867Z,48.70
2019-01-22T04:36:57.279Z,49.43
2019-01-22T04:39:50.159Z,49.23
2019-01-22T04:42:25.560Z,48.93
2019-01-22T04:45:19.025Z,52.47
2019-01-22T04:48:05.442Z,44.13
2019-01-22T04:51:11.897Z,53.40
2019-01-22T04:54:09.635Z,50.37
2019-01-22T04:56:51.250Z,46.57
2019-01-22T04:59:37.335Z,50.60
2019-01-22T05:02:12.041Z,49.37
2019-01-22T05:05:12.699Z,55.30
2019-01-22T05:07:47.622Z,48.67
2019-01-22T05:10:34.354Z,47.80
2019-01-22T05:13:17.891Z,50.03
2019-01-22T05:16:07.405Z,52.70
2019-01-22T05:18:54.278Z,47.70
2019-01-22T05:22:01.418Z,48.40
2019-01-22T05:24:40.019Z,50.03
2019-01-22T05:27:17.713Z,53.00
2019-01-22T05:30:18.486Z,54.47
2019-01-22T05:33:24.031Z,58.03
2019-01-22T05:36:29.409Z,56.53
2019-01-22T05:39:26.940Z,57.10
2019-01-22T05:42:04.956Z,55.80
2019-01-22T05:44:54.953Z,52.10
2019-01-22T05:47:44.167Z,56.87
2019-01-22T05:50:39.381Z,60.83
2019-01-22T05:53:30.987Z,61.10
2019-01-22T05:56:18.012Z,59.03
2019-01-22T05:59:30.897Z,59.77
2019-01-22T06:02:05.645Z,61.60
2019-01-22T06:04:56.540Z,53.23
2019-01-22T06:07:45.687Z,60.60
2019-01-22T06:10:42.356Z,49.97
2019-01-22T06:13:16.975Z,52.00
2019-01-22T06:16:13.144Z,54.17
2019-01-22T06:18:50.537Z,59.80
2019-01-22T06:21:52.241Z,54.47
2019-01-22T06:24:33.272Z,49.33
2019-01-22T06:27:04.124Z,53.60
2019-01-22T06:29:59.277Z,53.57
2019-01-22T06:32:49.304Z,51.17
2019-01-22T06:35:47.710Z,52.17
2019-01-22T06:38:42.937Z,51.63
2019-01-22T06:41:32.536Z,53.97
2019-01-22T06:44:24.886Z,54.60
2019-01-22T06:46:59.843Z,58.60
2019-01-22T06:49:34.701Z,62.53
2019-01-22T06:52:25.262Z,60.63
2019-01-22T06:55:00.473Z,49.70
2019-01-22T06:57:40.474Z,58.07
2019-01-22T07:00:23.713Z,62.60
2019-01-22T07:03:22.227Z,60.63
2019-01-22T07:06:06.409Z,59.03
2019-01-22T07:08:55.436Z,60.87
2019-01-22T07:11:42.192Z,55.13
2019-01-22T07:14:33.737Z,58.67
2019-01-22T07:17:23.749Z,60.40
2019-01-22T07:20:21.180Z,61.03
2019-01-22T07:23:01.477Z,58.97
2019-01-22T07:25:45.141Z,61.30
2019-01-22T07:28:31.691Z,62.77
2019-01-22T07:31:29.996Z,64.47
2019-01-22T07:34:08.129Z,63.57
2019-01-22T07:37:07.106Z,56.83
2019-01-22T07:40:02.437Z,60.77
2019-01-22T07:42:58.408Z,66.97
2019-01-22T07:45:57.293Z,65.63
2019-01-22T07:48:37.535Z,57.50
2019-01-22T07:51:12.386Z,59.83
2019-01-22T07:54:14.462Z,68.13
2019-01-22T07:56:51.939Z,63.53
2019-01-22T07:59:23.862Z,69.57
2019-01-22T08:02:11.006Z,65.53
2019-01-22T08:04:53.692Z,67.87
2019-01-22T08:07:57.056Z,71.10
2019-01-22T08:10:58.674Z,66.87
2019-01-22T08:13:39.467Z,64.13
2019-01-22T08:16:31.393Z,68.83
2019-01-22T08:19:05.904Z,65.57
2019-01-22T08:22:11.680Z,60.77
2019-01-22T08:24:50.006Z,69.47
2019-01-22T08:27:32.982Z,76.80
2019-01-22T08:30:22.270Z,70.03
2019-01-22T08:33:21.006Z,73.27
2019-01-22T08:36:01.297Z,69.90
2019-01-22T08:38:33.224Z,72.47
2019-01-22T08:41:32.413Z,71.83
2019-01-22T08:44:10.292Z,73.60
2019-01-22T08:46:50.303Z,70.70
2019-01-22T08:49:36.890Z,68.73
2019-01-22T08:52:14.348Z,70.10
2019-01-22T08:54:58.401Z,72.67
2019-01-22T08:57:54.230Z,65.33
2019-01-22T09:00:44.357Z,67.03
2019-01-22T09:03:33.776Z,67.80
2019-01-22T09:06:14.749Z,67.90
2019-01-22T09:08:46.966Z,64.63
2019-01-22T09:11:39.149Z,73.93
2019-01-22T09:14:31.870Z,76.20
2019-01-22T09:17:23.583Z,68.23
2019-01-22T09:20:30.207Z,65.10
2019-01-22T09:23:11.022Z,67.90
2019-01-22T09:25:51.659Z,70.97
2019-01-22T09:28:50.572Z,71.10
2019-01-22T09:31:34.646Z,73.30
2019-01-22T09:34:27.238Z,71.20
2019-01-22T09:37:01.961Z,72.80
2019-01-22T09:39:28.172Z,69.77
2019-01-22T09:41:54.356Z,69.70
2019-01-22T09:44:20.578Z,71.87
2019-01-22T09:46:46.768Z,68.33
2019-01-22T09:49:12.965Z,63.90
2019-01-22T09:51:40.033Z,72.43
2019-01-22T09:54:06.234Z,67.80
2019-01-22T09:56:32.422Z,70.93
2019-01-22T09:58:58.629Z,73.50
2019-01-22T10:01:24.835Z,65.77
2019-01-22T10:04:03.553Z,74.70
2019-01-22T10:06:39.547Z,69.80
2019-01-22T10:09:33.648Z,63.93
2019-01-22T10:13:02.721Z,67.67
2019-01-22T10:15:43.339Z,68.50
2019-01-22T10:18:09.526Z,65.53
2019-01-22T10:20:36.100Z,70.27
2019-01-22T10:23:02.929Z,62.47
2019-01-22T10:25:29.750Z,70.20
2019-01-22T10:27:56.045Z,66.63
2019-01-22T10:30:23.755Z,66.43
2019-01-22T10:32:49.932Z,64.13
2019-01-22T10:35:16.144Z,59.90
2019-01-22T10:37:42.842Z,58.27
2019-01-22T10:40:24.857Z,60.30
2019-01-22T10:42:51.398Z,58.00
2019-01-22T10:45:18.999Z,59.10
2019-01-22T10:47:45.598Z,61.80
2019-01-22T10:50:16.713Z,60.30
2019-01-22T10:52:42.970Z,55.50
2019-01-22T10:55:12.774Z,55.27
2019-01-22T10:57:39.280Z,57.73
2019-01-22T11:00:22.917Z,59.40
2019-01-22T11:02:49.112Z,55.50
2019-01-22T11:05:25.975Z,61.93
2019-01-22T11:07:52.501Z,59.23
2019-01-22T11:10:18.704Z,54.27
2019-01-22T11:12:44.895Z,58.53
2019-01-22T11:15:12.009Z,58.63
2019-01-22T11:17:38.198Z,75.87
2019-01-22T11:20:15.495Z,60.77
2019-01-22T11:22:41.684Z,58.00
2019-01-22T11:25:12.590Z,54.90
2019-01-22T11:27:38.778Z,52.73
2019-01-22T11:30:16.166Z,54.03
2019-01-22T11:32:42.350Z,49.30
2019-01-22T11:35:13.258Z,54.57
2019-01-22T11:37:39.439Z,51.87
2019-01-22T11:40:13.941Z,51.27
2019-01-22T11:42:40.131Z,50.33
2019-01-22T11:45:07.536Z,47.13
2019-01-22T11:47:33.734Z,52.47
2019-01-22T11:49:59.942Z,48.00
2019-01-22T11:52:26.137Z,50.93
2019-01-22T11:54:52.359Z,53.17
2019-01-22T11:57:18.550Z,48.17
2019-01-22T11:59:45.952Z,49.60
2019-01-22T12:02:12.373Z,50.73
2019-01-22T12:04:38.564Z,50.07
2019-01-22T12:07:04.764Z,51.40
2019-01-22T12:09:30.960Z,52.33
2019-01-22T12:11:57.179Z,50.80
2019-01-22T12:14:23.367Z,48.83
2019-01-22T12:16:49.571Z,43.77
2019-01-22T12:19:15.769Z,45.70
2019-01-22T12:21:41.974Z,44.73
2019-01-22T12:24:08.570Z,46.40
2019-01-22T12:26:34.767Z,45.77
2019-01-22T12:29:01.069Z,50.13
2019-01-22T12:31:27.277Z,51.17
2019-01-22T12:33:53.462Z,46.53
2019-01-22T12:36:19.672Z,49.00
2019-01-22T12:38:45.866Z,40.73
2019-01-22T12:41:12.091Z,45.73
2019-01-22T12:43:38.290Z,46.80
2019-01-22T12:46:04.482Z,46.97
2019-01-22T12:48:30.696Z,48.07
2019-01-22T12:50:56.900Z,48.23
2019-01-22T12:53:23.197Z,46.40
2019-01-22T12:55:49.399Z,50.13
2019-01-22T12:58:15.603Z,47.20
2019-01-22T13:00:41.805Z,46.17
2019-01-22T13:03:08.298Z,38.77
2019-01-22T13:05:47.996Z,42.53
2019-01-22T13:08:14.195Z,43.13
2019-01-22T13:10:40.392Z,42.90
2019-01-22T13:13:06.786Z,43.60
2019-01-22T13:15:33.184Z,42.13
2019-01-22T13:17:59.378Z,36.60
2019-01-22T13:20:25.973Z,35.10
2019-01-22T13:22:52.199Z,38.47
2019-01-22T13:25:18.385Z,44.63
2019-01-22T13:27:44.800Z,38.53
2019-01-22T13:30:26.031Z,35.77
2019-01-22T13:32:52.335Z,38.27
2019-01-22T13:35:20.718Z,36.07
2019-01-22T13:37:47.519Z,36.70
2019-01-22T13:40:14.809Z,38.60
2019-01-22T13:42:41.009Z,38.83
2019-01-22T13:45:26.747Z,41.80
2019-01-22T13:47:54.448Z,42.50
2019-01-22T13:50:20.742Z,39.30
2019-01-22T13:52:47.344Z,35.00
2019-01-22T13:55:29.836Z,41.30
2019-01-22T13:57:56.038Z,37.27
2019-01-22T14:00:25.238Z,37.60
2019-01-22T14:02:53.662Z,37.33
2019-01-22T14:05:20.141Z,37.90
2019-01-22T14:07:46.336Z,44.07
2019-01-22T14:10:14.336Z,43.33
2019-01-22T14:12:40.526Z,43.47
2019-01-22T14:15:17.661Z,42.73
2019-01-22T14:17:43.867Z,41.53
2019-01-22T14:20:13.874Z,41.97
2019-01-22T14:22:40.318Z,39.90
2019-01-22T14:25:11.525Z,41.30
2019-01-22T14:27:37.832Z,40.27
2019-01-22T14:30:12.722Z,39.80
2019-01-22T14:32:38.914Z,42.03
2019-01-22T14:35:08.612Z,40.30
2019-01-22T14:37:34.808Z,37.43
2019-01-22T14:40:00.996Z,36.83
2019-01-22T14:42:27.203Z,35.87
2019-01-22T14:44:53.402Z,36.00
2019-01-22T14:47:19.615Z,36.23
2019-01-22T14:49:45.802Z,36.97
2019-01-22T14:52:12.003Z,41.83
2019-01-22T14:54:38.199Z,34.33
2019-01-22T14:57:04.401Z,38.20
2019-01-22T14:59:30.581Z,40.07
2019-01-22T15:01:56.792Z,38.20
2019-01-22T15:04:23.310Z,35.20
2019-01-22T15:06:49.508Z,32.97
2019-01-22T15:09:15.706Z,41.33
2019-01-22T15:11:41.903Z,36.67
2019-01-22T15:14:08.092Z,40.70
2019-01-22T15:16:34.309Z,37.00
2019-01-22T15:19:00.498Z,40.27
2019-01-22T15:21:27.015Z,48.37
2019-01-22T15:23:53.209Z,37.17
2019-01-22T15:26:19.470Z,39.23
2019-01-22T15:28:45.677Z,38.83
2019-01-22T15:31:11.868Z,42.43
2019-01-22T15:33:38.075Z,39.03
2019-01-22T15:36:04.274Z,38.63
2019-01-22T15:38:30.468Z,39.67
2019-01-22T15:40:56.652Z,37.90
2019-01-22T15:43:22.859Z,37.53
2019-01-22T15:45:49.302Z,37.63
2019-01-22T15:48:15.517Z,34.13
2019-01-22T15:50:41.805Z,39.37
2019-01-22T15:53:08.261Z,34.50
2019-01-22T15:55:36.146Z,36.03
2019-01-22T15:58:03.351Z,33.70
2019-01-22T16:00:29.745Z,29.73
2019-01-22T16:02:56.558Z,27.93
2019-01-22T16:05:23.346Z,32.13
2019-01-22T16:07:49.543Z,36.53
2019-01-22T16:10:15.742Z,34.87
2019-01-22T16:12:42.339Z,32.67
2019-01-22T16:15:20.590Z,34.00
2019-01-22T16:17:47.489Z,33.37
2019-01-22T16:20:19.807Z,33.83
2019-01-22T16:22:46.209Z,36.80
2019-01-22T16:25:13.441Z,37.50
2019-01-22T16:27:39.640Z,35.30
2019-01-22T16:30:13.282Z,37.40
2019-01-22T16:32:39.495Z,32.87
2019-01-22T16:35:09.083Z,36.20
2019-01-22T16:37:35.633Z,38.87
2019-01-22T16:40:05.229Z,36.63
2019-01-22T16:42:31.449Z,37.17
2019-01-22T16:44:57.646Z,35.30
2019-01-22T16:47:23.855Z,35.20
2019-01-22T16:49:50.046Z,38.63
2019-01-22T16:52:16.252Z,37.03
2019-01-22T16:54:42.443Z,40.00
2019-01-22T16:57:08.739Z,38.30
2019-01-22T16:59:34.944Z,39.67
2019-01-22T17:02:01.144Z,42.90
2019-01-22T17:04:27.445Z,38.67
2019-01-22T17:06:53.639Z,37.40
2019-01-22T17:09:19.839Z,39.73
2019-01-22T17:11:46.034Z,41.87
2019-01-22T17:14:12.233Z,44.83
2019-01-22T17:16:38.429Z,39.27
2019-01-22T17:19:04.641Z,42.70
2019-01-22T17:21:30.827Z,37.80
2019-01-22T17:23:57.033Z,46.70
2019-01-22T17:26:23.229Z,46.63
2019-01-22T17:28:49.702Z,41.67
2019-01-22T17:31:17.787Z,42.87
2019-01-22T17:33:43.993Z,43.23
2019-01-22T17:36:10.180Z,41.03
2019-01-22T17:38:36.378Z,47.73
2019-01-22T17:41:02.678Z,43.30
2019-01-22T17:43:28.888Z,43.50
2019-01-22T17:45:55.075Z,43.83
2019-01-22T17:48:21.270Z,45.90
2019-01-22T17:50:47.478Z,43.27
2019-01-22T17:53:13.676Z,46.67
2019-01-22T17:55:39.881Z,44.47
2019-01-22T17:58:06.077Z,49.03
2019-01-22T18:00:33.693Z,48.87
2019-01-22T18:02:59.888Z,53.70
2019-01-22T18:05:26.089Z,45.40
2019-01-22T18:07:52.282Z,47.30
2019-01-22T18:10:22.281Z,46.90
2019-01-22T18:12:48.486Z,55.07
2019-01-22T18:15:15.676Z,49.90
2019-01-22T18:17:42.068Z,45.80
2019-01-22T18:20:18.717Z,48.17
2019-01-22T18:22:44.922Z,47.07
2019-01-22T18:25:11.498Z,49.03
2019-01-22T18:27:38.745Z,45.53
2019-01-22T18:30:13.230Z,46.50
2019-01-22T18:32:39.446Z,47.87
2019-01-22T18:35:14.009Z,50.53
2019-01-22T18:37:40.203Z,50.53
2019-01-22T18:40:11.018Z,49.33
2019-01-22T18:42:37.201Z,52.20
2019-01-22T18:45:08.005Z,49.80
2019-01-22T18:47:34.202Z,49.47
2019-01-22T18:50:00.418Z,55.20
2019-01-22T18:52:26.607Z,51.27
2019-01-22T18:54:52.808Z,52.63
2019-01-22T18:57:29.944Z,49.67
2019-01-22T18:59:56.142Z,47.47
2019-01-22T19:02:24.360Z,57.33
2019-01-22T19:05:07.310Z,51.80
2019-01-22T19:07:34.527Z,50.97
2019-01-22T19:10:04.021Z,48.57
2019-01-22T19:12:28.933Z,49.03
2019-01-22T19:14:55.136Z,56.30
2019-01-22T19:17:21.332Z,54.70
2019-01-22T19:19:47.543Z,55.30
2019-01-22T19:22:13.731Z,54.60
2019-01-22T19:24:39.927Z,56.53
2019-01-22T19:27:06.124Z,56.07
2019-01-22T19:29:32.330Z,55.67
2019-01-22T19:31:58.544Z,58.17
2019-01-22T19:34:30.810Z,54.10
2019-01-22T19:36:57.011Z,55.93
2019-01-22T19:39:23.218Z,56.97
2019-01-22T19:41:49.402Z,62.00
2019-01-22T19:44:15.605Z,60.50
2019-01-22T19:46:41.790Z,53.33
2019-01-22T19:49:19.953Z,57.63
2019-01-22T19:51:46.159Z,56.87
2019-01-22T19:54:12.360Z,59.97
2019-01-22T19:56:38.547Z,59.60
2019-01-22T19:59:04.751Z,61.00
2019-01-22T20:01:37.958Z,64.37
2019-01-22T20:04:04.434Z,58.97
2019-01-22T20:06:30.924Z,56.17
2019-01-22T20:08:58.168Z,57.80
2019-01-22T20:11:24.367Z,58.80
2019-01-22T20:13:50.565Z,52.87
2019-01-22T20:16:16.760Z,61.67
2019-01-22T20:18:42.989Z,58.50
2019-01-22T20:21:09.187Z,67.87
2019-01-22T20:23:35.379Z,57.80
2019-01-22T20:26:01.583Z,54.10
2019-01-22T20:28:27.779Z,58.50
2019-01-22T20:30:53.977Z,56.00
2019-01-22T20:34:13.482Z,56.37
2019-01-22T20:36:39.671Z,56.10
2019-01-22T20:39:07.189Z,53.73
2019-01-22T20:41:33.375Z,59.10
2019-01-22T20:43:59.687Z,58.20
2019-01-22T20:46:25.883Z,52.53
2019-01-22T20:48:52.071Z,57.37
2019-01-22T20:51:18.291Z,51.43
2019-01-22T20:53:44.456Z,60.37
2019-01-22T20:56:10.664Z,55.67
2019-01-22T20:58:40.506Z,64.43
2019-01-22T21:01:04.970Z,55.07
2019-01-22T21:03:31.167Z,51.57
2019-01-22T21:05:57.375Z,54.63
2019-01-22T21:08:23.572Z,55.07
2019-01-22T21:10:51.876Z,50.10
2019-01-22T21:13:18.067Z,54.43
2019-01-22T21:15:44.272Z,53.20
2019-01-22T21:18:10.465Z,53.20
2019-01-22T21:20:36.679Z,48.93
2019-01-22T21:23:03.378Z,55.43
2019-01-22T21:25:29.602Z,50.97
2019-01-22T21:28:01.561Z,51.23
2019-01-22T21:30:27.504Z,53.43
2019-01-22T21:32:53.691Z,50.97
2019-01-22T21:35:19.915Z,50.93
2019-01-22T21:37:46.103Z,47.63
2019-01-22T21:40:13.413Z,55.00
2019-01-22T21:42:39.595Z,50.87
2019-01-22T21:45:13.258Z,50.30
2019-01-22T21:47:39.462Z,76.37
2019-01-22T21:50:10.266Z,71.20
2019-01-22T21:52:36.452Z,70.27
2019-01-22T21:55:07.162Z,58.80
2019-01-22T21:57:33.348Z,60.43
2019-01-22T21:59:59.548Z,60.70
2019-01-22T22:02:25.743Z,62.27
2019-01-22T22:04:51.942Z,62.87
2019-01-22T22:07:18.140Z,63.87
2019-01-22T22:09:44.333Z,54.80
2019-01-22T22:12:10.524Z,52.57
2019-01-22T22:14:36.712Z,53.17
2019-01-22T22:17:03.113Z,57.03
2019-01-22T22:19:29.305Z,52.10
2019-01-22T22:21:55.537Z,49.47
2019-01-22T22:24:21.734Z,49.13
2019-01-22T22:27:00.062Z,49.23
2019-01-22T22:29:26.260Z,50.17
2019-01-22T22:31:52.462Z,51.87
2019-01-22T22:34:18.655Z,52.60
2019-01-22T22:36:44.854Z,53.33
2019-01-22T22:39:11.308Z,50.53
2019-01-22T22:41:37.508Z,52.23
2019-01-22T22:44:04.121Z,52.53
2019-01-22T22:46:31.337Z,55.43
2019-01-22T22:49:01.032Z,57.03
2019-01-22T22:51:48.863Z,55.17
2019-01-22T22:54:15.059Z,54.07
2019-01-22T22:56:41.265Z,52.40
2019-01-22T22:59:11.666Z,48.07
2019-01-22T23:01:38.601Z,58.20
2019-01-22T23:04:04.801Z,52.13
2019-01-22T23:06:31.001Z,49.63
2019-01-22T23:08:57.203Z,52.67
2019-01-22T23:11:23.412Z,56.70
2019-01-22T23:13:49.602Z,53.33
2019-01-22T23:16:15.800Z,59.00
2019-01-22T23:18:41.982Z,62.53
2019-01-22T23:21:08.178Z,55.03
2019-01-22T23:23:34.374Z,53.40
2019-01-22T23:26:00.589Z,54.13
2019-01-22T23:28:28.970Z,54.73
2019-01-22T23:30:54.881Z,60.20
2019-01-22T23:33:21.085Z,59.43
2019-01-22T23:35:47.375Z,57.30
2019-01-22T23:38:13.569Z,57.13
2019-01-22T23:40:40.095Z,56.33
2019-01-22T23:43:06.292Z,63.07
2019-01-22T23:45:32.492Z,54.27
2019-01-22T23:47:58.690Z,54.17
2019-01-22T23:50:24.904Z,53.60
2019-01-22T23:52:51.096Z,55.07
2019-01-22T23:55:17.287Z,54.20
2019-01-22T23:57:43.525Z,50.57
